Time;durP1;ratioP1;P1;durP2;ratioP2;P2;SDS_P1;SDS_P2;PMS_P1;PMS_P2;Temp;Humidity;BMP_temperature;BMP_pressure;BME280_temperature;BME280_humidity;BME280_pressure;Samples;Min_cycle;Max_cycle;Signal;HPM_P1;HPM_P2
2024/01/27 00:01:52;;;;;;;;;73.00;56.75;;;;;4.63;100.00;103504.09;5092336;27;45644;-77
2024/01/27 00:04:20;;;;;;;;;71.75;55.75;;;;;4.55;100.00;103495.19;5081847;27;45395;-77
2024/01/27 00:06:45;;;;;;;;;69.25;54.25;;;;;4.73;100.00;103540.13;5099412;27;45498;-77
2024/01/27 00:09:11;;;;;;;;;69.50;57.50;;;;;4.63;100.00;103532.03;5081616;27;45478;-77
2024/01/27 00:11:36;;;;;;;;;66.75;52.50;;;;;4.56;100.00;103517.03;5084214;27;47839;-77
2024/01/27 00:14:02;;;;;;;;;71.50;54.25;;;;;4.70;100.00;103550.56;5082983;27;45325;-77
2024/01/27 00:16:28;;;;;;;;;71.25;53.50;;;;;4.53;100.00;103515.25;5098353;27;45305;-77
2024/01/27 00:18:53;;;;;;;;;63.25;53.75;;;;;4.57;100.00;103529.28;5099510;27;45249;-77
2024/01/27 00:21:22;;;;;;;;;61.00;52.00;;;;;4.46;100.00;103529.06;5091067;27;45393;-77
2024/01/27 00:23:47;;;;;;;;;66.25;53.50;;;;;4.55;100.00;103544.97;5099058;27;45386;-77
2024/01/27 00:26:12;;;;;;;;;69.50;55.25;;;;;4.55;100.00;103558.06;5094298;27;45425;-77
2024/01/27 00:28:38;;;;;;;;;73.00;56.25;;;;;4.33;100.00;103518.28;5071251;27;45471;-77
2024/01/27 00:31:06;;;;;;;;;64.75;50.75;;;;;4.51;100.00;103555.38;5080562;27;47092;-77
2024/01/27 00:33:31;;;;;;;;;72.50;56.50;;;;;4.29;100.00;103521.72;5090069;27;45284;-77
2024/01/27 00:35:57;;;;;;;;;67.25;53.75;;;;;4.09;100.00;103498.53;5077473;28;45273;-77
2024/01/27 00:38:22;;;;;;;;;65.75;53.00;;;;;4.45;100.00;103565.72;5090036;27;45221;-77
2024/01/27 00:40:48;;;;;;;;;69.75;54.50;;;;;4.15;100.00;103500.44;5098499;27;61605;-77
2024/01/27 00:43:13;;;;;;;;;62.00;52.25;;;;;3.90;100.00;103456.19;5103836;27;45438;-77
2024/01/27 00:45:39;;;;;;;;;73.25;58.75;;;;;3.79;100.00;103442.00;5098683;27;45278;-76
2024/01/27 00:48:05;;;;;;;;;68.75;52.50;;;;;4.13;100.00;103510.88;5099247;27;45313;-77
2024/01/27 00:50:30;;;;;;;;;66.50;54.00;;;;;4.02;100.00;103503.63;5096567;27;47911;-77
2024/01/27 00:52:55;;;;;;;;;72.75;56.50;;;;;4.34;100.00;103562.88;5083829;27;45434;-76
2024/01/27 00:55:20;;;;;;;;;75.00;57.00;;;;;4.10;100.00;103523.88;5098103;27;51307;-76
2024/01/27 00:57:46;;;;;;;;;75.25;58.75;;;;;4.15;100.00;103550.19;5081854;27;45246;-77
2024/01/27 01:00:12;;;;;;;;;68.00;54.25;;;;;4.13;100.00;103537.06;5081223;27;47258;-77
2024/01/27 01:02:37;;;;;;;;;75.75;55.50;;;;;4.01;100.00;103502.75;5098825;27;45411;-77
2024/01/27 01:05:04;;;;;;;;;67.00;52.25;;;;;3.98;100.00;103509.63;5098913;27;45431;-76
2024/01/27 01:07:30;;;;;;;;;67.50;52.50;;;;;4.08;100.00;103541.31;5076589;27;45339;-76
2024/01/27 01:09:55;;;;;;;;;72.00;54.25;;;;;4.17;100.00;103545.88;5076889;27;45565;-77
2024/01/27 01:12:20;;;;;;;;;68.75;53.25;;;;;4.10;100.00;103533.47;5093870;27;45402;-76
2024/01/27 01:14:46;;;;;;;;;74.25;54.50;;;;;4.12;100.00;103526.56;5077751;27;45300;-76
2024/01/27 01:17:12;;;;;;;;;67.00;54.75;;;;;4.13;100.00;103538.78;5078129;28;45633;-76
2024/01/27 01:19:38;;;;;;;;;74.75;54.75;;;;;3.96;100.00;103500.88;5076474;28;47055;-76
2024/01/27 01:22:04;;;;;;;;;63.75;49.75;;;;;4.05;100.00;103525.53;5073728;28;45447;-76
2024/01/27 01:24:30;;;;;;;;;73.00;52.50;;;;;4.06;100.00;103532.53;5080199;27;45362;-76
2024/01/27 01:26:55;;;;;;;;;66.50;53.25;;;;;4.05;100.00;103536.00;5081459;27;45301;-77
2024/01/27 01:29:22;;;;;;;;;64.25;52.00;;;;;3.91;100.00;103497.25;5096435;27;45391;-76
2024/01/27 01:31:47;;;;;;;;;74.50;55.25;;;;;3.86;100.00;103507.59;5079277;28;45477;-77
2024/01/27 01:34:12;;;;;;;;;67.25;52.25;;;;;3.96;100.00;103530.53;5097431;27;45726;-77
2024/01/27 01:36:38;;;;;;;;;67.75;51.50;;;;;3.94;100.00;103510.41;5076436;28;45536;-77
2024/01/27 01:39:03;;;;;;;;;67.00;52.75;;;;;3.85;100.00;103505.84;5079145;28;46732;-77
2024/01/27 01:41:29;;;;;;;;;69.50;54.25;;;;;3.95;100.00;103514.81;5097407;27;45439;-76
2024/01/27 01:43:54;;;;;;;;;67.75;53.50;;;;;3.93;100.00;103513.88;5096501;27;45599;-76
2024/01/27 01:46:23;;;;;;;;;65.75;50.25;;;;;3.84;100.00;103504.06;5076665;28;45485;-77
2024/01/27 01:48:49;;;;;;;;;54.75;44.50;;;;;3.93;100.00;103524.34;5076873;28;47279;-76
2024/01/27 01:51:16;;;;;;;;;63.50;51.50;;;;;3.95;100.00;103535.75;5081073;27;45393;-76
2024/01/27 01:53:42;;;;;;;;;41.50;39.50;;;;;3.88;100.00;103528.59;5081470;27;45508;-77
2024/01/27 01:56:08;;;;;;;;;61.50;50.25;;;;;3.53;100.00;103471.03;5081954;28;45481;-77
2024/01/27 01:58:34;;;;;;;;;60.00;48.00;;;;;3.90;100.00;103525.16;5079869;28;47237;-77
2024/01/27 02:01:03;;;;;;;;;61.00;49.00;;;;;3.89;100.00;103533.00;5081800;28;45542;-77
2024/01/27 02:03:28;;;;;;;;;53.75;44.00;;;;;3.86;100.00;103528.53;5081465;28;45257;-77
2024/01/27 02:05:55;;;;;;;;;60.50;47.75;;;;;3.83;100.00;103536.31;5079946;28;45359;-77
2024/01/27 02:08:23;;;;;;;;;59.50;43.50;;;;;3.70;100.00;103512.47;5068733;27;48201;-77
2024/01/27 02:10:49;;;;;;;;;36.25;32.25;;;;;3.37;100.00;103468.03;5057475;28;45517;-77
2024/01/27 02:13:20;;;;;;;;;55.75;44.25;;;;;3.07;100.00;103462.91;5079966;28;45374;-77
2024/01/27 02:15:48;;;;;;;;;50.25;43.25;;;;;2.75;100.00;103380.16;5062482;28;45498;-77
2024/01/27 02:18:14;;;;;;;;;61.25;44.50;;;;;3.41;100.00;103462.00;5077948;28;45516;-77
2024/01/27 02:20:39;;;;;;;;;48.50;40.50;;;;;3.31;100.00;103444.31;5080741;28;45485;-77
2024/01/27 02:23:05;;;;;;;;;53.75;43.25;;;;;3.26;100.00;103483.44;5081007;28;45379;-77
2024/01/27 02:25:32;;;;;;;;;56.00;45.00;;;;;3.70;100.00;103528.16;5080845;28;45312;-77
2024/01/27 02:27:57;;;;;;;;;51.50;43.75;;;;;3.46;100.00;103511.00;5060965;28;47322;-77
2024/01/27 02:30:23;;;;;;;;;49.25;41.50;;;;;3.37;100.00;103489.81;5080564;28;45322;-78
2024/01/27 02:32:48;;;;;;;;;55.75;42.75;;;;;3.65;100.00;103523.69;5079541;28;45459;-78
2024/01/27 02:35:14;;;;;;;;;52.50;42.50;;;;;3.49;100.00;103492.75;5061976;28;45892;-78
2024/01/27 02:37:40;;;;;;;;;55.50;44.00;;;;;3.55;100.00;103523.41;5062580;28;47055;-78
2024/01/27 02:40:09;;;;;;;;;52.75;39.75;;;;;3.09;100.00;103424.59;5080645;28;45383;-77
2024/01/27 02:42:35;;;;;;;;;43.75;36.00;;;;;3.36;100.00;103477.59;5079718;28;45483;-78
2024/01/27 02:45:01;;;;;;;;;52.25;43.50;;;;;3.40;100.00;103489.03;5080037;28;45453;-77
2024/01/27 02:47:26;;;;;;;;;52.00;39.00;;;;;3.51;100.00;103509.38;5079790;28;45939;-77
2024/01/27 02:49:51;;;;;;;;;47.00;40.50;;;;;3.33;100.00;103488.00;5079979;28;45402;-77
2024/01/27 02:52:17;;;;;;;;;50.75;39.75;;;;;3.50;100.00;103515.44;5067214;28;45463;-77
2024/01/27 02:54:42;;;;;;;;;50.75;38.75;;;;;3.01;100.00;103420.91;5083127;28;45215;-77
2024/01/27 02:57:08;;;;;;;;;52.75;41.75;;;;;2.93;100.00;103445.97;5080617;28;47000;-78
2024/01/27 02:59:33;;;;;;;;;46.50;41.00;;;;;2.94;100.00;103421.59;5078954;28;45373;-78
2024/01/27 03:01:59;;;;;;;;;47.25;38.25;;;;;2.97;100.00;103463.50;5079695;28;45308;-77
2024/01/27 03:04:24;;;;;;;;;51.25;40.50;;;;;3.18;100.00;103482.34;5080453;28;45286;-78
2024/01/27 03:06:50;;;;;;;;;50.50;43.25;;;;;2.75;100.00;103425.44;5068960;27;45439;-78
2024/01/27 03:09:15;;;;;;;;;48.25;40.25;;;;;3.28;100.00;103518.34;5080193;27;45501;-79
2024/01/27 03:11:40;;;;;;;;;49.00;41.75;;;;;3.15;100.00;103475.31;5079693;28;45277;-78
2024/01/27 03:14:06;;;;;;;;;46.75;40.00;;;;;3.32;100.00;103508.88;5061293;28;45565;-78
2024/01/27 03:16:32;;;;;;;;;50.25;41.25;;;;;2.50;100.00;103384.72;5078145;28;48216;-78
2024/01/27 03:18:57;;;;;;;;;44.50;36.00;;;;;2.96;100.00;103454.78;5079491;28;45529;-78
2024/01/27 03:21:23;;;;;;;;;23.50;17.25;;;;;3.14;100.00;103502.28;5079922;28;45439;-78
2024/01/27 03:23:48;;;;;;;;;48.75;40.25;;;;;3.20;100.00;103492.88;5061539;28;45320;-78
2024/01/27 03:26:13;;;;;;;;;43.00;36.75;;;;;2.61;100.00;103392.84;5078266;28;47138;-77
2024/01/27 03:28:39;;;;;;;;;59.00;47.25;;;;;2.95;100.00;103460.84;5079343;28;45502;-77
2024/01/27 03:31:04;;;;;;;;;58.25;47.25;;;;;3.06;100.00;103488.16;5079854;28;45370;-77
2024/01/27 03:33:30;;;;;;;;;50.25;41.75;;;;;3.00;100.00;103469.69;5084812;27;45455;-78
2024/01/27 03:35:55;;;;;;;;;55.75;42.75;;;;;3.02;100.00;103483.69;5060921;28;46528;-78
2024/01/27 03:38:21;;;;;;;;;53.75;44.50;;;;;2.89;100.00;103478.97;5079600;28;45493;-78
2024/01/27 03:40:46;;;;;;;;;53.50;42.75;;;;;3.04;100.00;103488.97;5079927;28;45408;-78
2024/01/27 03:43:12;;;;;;;;;50.25;42.00;;;;;2.87;100.00;103478.06;5078452;28;45478;-78
2024/01/27 03:45:37;;;;;;;;;58.00;46.25;;;;;2.85;100.00;103452.69;5061629;28;46909;-78
2024/01/27 03:48:02;;;;;;;;;51.50;42.25;;;;;2.90;100.00;103467.69;5078383;28;45297;-78
2024/01/27 03:50:28;;;;;;;;;58.00;44.75;;;;;2.78;100.00;103442.94;5081932;28;45480;-77
2024/01/27 03:52:53;;;;;;;;;46.25;27.75;;;;;2.91;100.00;103458.97;5063339;28;45324;-78
2024/01/27 03:55:19;;;;;;;;;58.00;43.25;;;;;2.89;100.00;103473.75;5085610;27;45329;-77
2024/01/27 03:57:44;;;;;;;;;57.50;42.50;;;;;2.39;100.00;103380.91;5078072;28;46984;-77
2024/01/27 04:00:12;;;;;;;;;44.25;39.75;;;;;2.97;100.00;103485.31;5078775;28;48466;-77
2024/01/27 04:02:38;;;;;;;;;50.25;40.00;;;;;2.96;100.00;103488.75;5061863;28;45486;-78
2024/01/27 04:05:04;;;;;;;;;57.50;44.50;;;;;2.87;100.00;103464.09;5078930;28;46327;-78
2024/01/27 04:07:29;;;;;;;;;58.75;44.25;;;;;2.75;100.00;103454.19;5085932;27;45683;-78
2024/01/27 04:09:54;;;;;;;;;44.00;36.75;;;;;2.25;100.00;103364.00;5077885;28;45578;-78
2024/01/27 04:12:20;;;;;;;;;55.75;43.00;;;;;2.89;100.00;103481.59;5078982;27;45328;-78
2024/01/27 04:14:45;;;;;;;;;53.50;40.75;;;;;2.82;100.00;103473.53;5078306;27;45378;-77
2024/01/27 04:17:10;;;;;;;;;51.50;43.25;;;;;2.76;100.00;103471.63;5077727;28;47822;-78
2024/01/27 04:19:36;;;;;;;;;49.00;39.00;;;;;2.75;100.00;103479.44;5079182;27;45440;-78
2024/01/27 04:22:02;;;;;;;;;47.00;43.00;;;;;2.78;100.00;103480.38;5077388;27;45576;-78
2024/01/27 04:24:28;;;;;;;;;56.00;41.75;;;;;2.49;100.00;103435.19;5078635;28;45452;-78
2024/01/27 04:26:53;;;;;;;;;40.25;33.50;;;;;2.64;100.00;103460.84;5079197;28;45291;-78
2024/01/27 04:29:19;;;;;;;;;44.75;40.50;;;;;2.49;100.00;103443.00;5077146;28;45458;-78
2024/01/27 04:31:44;;;;;;;;;53.25;44.50;;;;;2.74;100.00;103490.72;5077220;28;52606;-78
2024/01/27 04:34:10;;;;;;;;;57.75;42.75;;;;;2.46;100.00;103476.00;5075006;28;45301;-78
2024/01/27 04:36:36;;;;;;;;;49.00;41.00;;;;;2.42;100.00;103454.13;5078690;27;45742;-79
2024/01/27 04:39:02;;;;;;;;;47.50;39.50;;;;;2.74;100.00;103516.88;5077555;28;45324;-78
2024/01/27 04:41:27;;;;;;;;;43.00;39.25;;;;;2.15;100.00;103405.47;5076773;28;45466;-78
2024/01/27 04:43:53;;;;;;;;;53.00;44.50;;;;;2.32;100.00;103433.84;5080433;27;48223;-79
2024/01/27 04:46:18;;;;;;;;;48.00;42.25;;;;;2.69;100.00;103508.88;5098510;27;45438;-78
2024/01/27 04:48:44;;;;;;;;;49.25;41.50;;;;;2.51;100.00;103495.31;5095844;27;45507;-78
2024/01/27 04:51:09;;;;;;;;;52.25;40.50;;;;;2.50;100.00;103488.31;5077207;28;45517;-78
2024/01/27 04:53:35;;;;;;;;;53.50;41.75;;;;;2.52;100.00;103477.06;5078441;27;45395;-79
2024/01/27 04:56:00;;;;;;;;;55.75;42.00;;;;;2.59;100.00;103507.75;5078799;27;45418;-78
2024/01/27 04:58:26;;;;;;;;;45.75;40.00;;;;;2.49;100.00;103490.03;5079075;28;45293;-78
2024/01/27 05:00:51;;;;;;;;;55.50;45.75;;;;;2.54;100.00;103503.22;5097977;27;45567;-79
2024/01/27 05:03:17;;;;;;;;;50.00;41.25;;;;;2.03;100.00;103429.47;5086412;27;45714;-78
2024/01/27 05:05:42;;;;;;;;;52.75;40.75;;;;;2.59;100.00;103510.34;5081786;27;45296;-78
2024/01/27 05:08:09;;;;;;;;;57.25;41.50;;;;;2.26;100.00;103475.41;5082459;27;45339;-78
2024/01/27 05:10:35;;;;;;;;;57.25;46.25;;;;;2.37;100.00;103491.41;5082800;27;45428;-79
2024/01/27 05:13:00;;;;;;;;;46.75;40.75;;;;;1.94;100.00;103405.69;5063827;27;45492;-78
2024/01/27 05:15:26;;;;;;;;;49.00;43.50;;;;;2.02;100.00;103427.72;5083845;27;45396;-79
2024/01/27 05:17:51;;;;;;;;;55.00;41.75;;;;;2.10;100.00;103462.75;5091285;27;45491;-78
2024/01/27 05:20:18;;;;;;;;;57.00;43.25;;;;;2.16;100.00;103468.13;5100753;27;45471;-78
2024/01/27 05:22:44;;;;;;;;;58.75;45.25;;;;;2.08;100.00;103469.66;5087598;27;45433;-79
2024/01/27 05:25:09;;;;;;;;;50.00;44.50;;;;;2.20;100.00;103475.22;5101276;27;45509;-79
2024/01/27 05:27:37;;;;;;;;;56.75;45.75;;;;;2.13;100.00;103468.06;5100708;27;45394;-78
2024/01/27 05:30:02;;;;;;;;;56.25;45.75;;;;;2.24;100.00;103481.44;5082556;27;45811;-79
2024/01/27 05:32:28;;;;;;;;;52.50;45.00;;;;;2.41;100.00;103517.66;5096554;27;47439;-79
2024/01/27 05:34:53;;;;;;;;;52.25;44.75;;;;;2.14;100.00;103469.84;5101203;27;45368;-78
2024/01/27 05:37:18;;;;;;;;;55.25;43.25;;;;;2.24;100.00;103494.47;5100193;27;45458;-78
2024/01/27 05:39:44;;;;;;;;;60.25;49.00;;;;;2.35;100.00;103514.88;5099876;27;45587;-79
2024/01/27 05:42:09;;;;;;;;;62.25;48.00;;;;;2.36;100.00;103514.00;5087209;27;48193;-79
2024/01/27 05:44:34;;;;;;;;;56.75;45.00;;;;;1.72;100.00;103417.22;5070823;27;45776;-79
2024/01/27 05:47:00;;;;;;;;;50.25;35.50;;;;;2.09;100.00;103464.47;5088169;27;45508;-80
2024/01/27 05:49:25;;;;;;;;;57.50;45.25;;;;;1.98;100.00;103450.22;5085491;27;45395;-79
2024/01/27 05:51:51;;;;;;;;;61.25;48.00;;;;;2.05;100.00;103473.06;5068887;27;46683;-78
2024/01/27 05:54:16;;;;;;;;;58.75;46.25;;;;;2.07;100.00;103462.66;5094446;27;45302;-79
2024/01/27 05:56:42;;;;;;;;;55.50;44.25;;;;;2.20;100.00;103487.41;5074629;27;45333;-79
2024/01/27 05:59:07;;;;;;;;;63.00;43.00;;;;;2.26;100.00;103501.50;5071034;27;45499;-79
2024/01/27 06:01:33;;;;;;;;;60.50;46.75;;;;;1.88;100.00;103460.31;5088463;27;46041;-79
2024/01/27 06:03:58;;;;;;;;;64.25;50.75;;;;;1.72;100.00;103422.44;5090099;27;45453;-79
2024/01/27 06:06:24;;;;;;;;;64.25;50.75;;;;;1.94;100.00;103458.78;5087912;27;45440;-79
2024/01/27 06:08:49;;;;;;;;;63.00;52.50;;;;;1.97;100.00;103458.00;5054274;28;45371;-79
2024/01/27 06:11:23;;;;;;;;;55.00;45.75;;;;;1.95;100.00;103473.63;5080948;27;45598;-79
2024/01/27 06:13:48;;;;;;;;;61.50;48.25;;;;;1.93;100.00;103456.16;5075468;27;45994;-79
2024/01/27 06:16:14;;;;;;;;;62.25;49.25;;;;;2.09;100.00;103489.69;5076084;28;45354;-79
2024/01/27 06:18:39;;;;;;;;;60.50;51.75;;;;;2.06;100.00;103500.06;5080690;28;45821;-79
2024/01/27 06:21:05;;;;;;;;;65.25;52.00;;;;;2.16;100.00;103512.53;5079087;27;47270;-79
2024/01/27 06:23:30;;;;;;;;;66.25;50.50;;;;;2.14;100.00;103522.03;5094944;27;46765;-79
2024/01/27 06:25:56;;;;;;;;;65.25;51.75;;;;;2.12;100.00;103509.78;5054999;28;45374;-79
2024/01/27 06:28:21;;;;;;;;;62.75;48.00;;;;;2.01;100.00;103488.56;5080301;28;45662;-79
2024/01/27 06:30:46;;;;;;;;;55.25;44.75;;;;;2.10;100.00;103499.28;5077920;28;47871;-79
2024/01/27 06:33:12;;;;;;;;;67.25;50.00;;;;;2.06;100.00;103513.09;5088730;27;45383;-79
2024/01/27 06:35:40;;;;;;;;;58.50;49.25;;;;;2.07;100.00;103501.81;5081349;27;45316;-79
2024/01/27 06:38:05;;;;;;;;;56.25;44.00;;;;;2.06;100.00;103494.84;5068973;28;45522;-79
2024/01/27 06:40:30;;;;;;;;;58.25;44.50;;;;;1.61;100.00;103436.84;5062988;28;46200;-79
2024/01/27 06:42:56;;;;;;;;;58.00;45.50;;;;;2.02;100.00;103500.78;5085902;27;45272;-80
2024/01/27 06:45:21;;;;;;;;;52.25;42.50;;;;;1.41;100.00;103397.13;5086949;27;45268;-79
2024/01/27 06:47:46;;;;;;;;;52.75;40.00;;;;;1.76;100.00;103483.44;5080661;28;45288;-79
2024/01/27 06:50:13;;;;;;;;;43.50;40.25;;;;;1.99;100.00;103500.69;5061921;28;47934;-79
2024/01/27 06:52:39;;;;;;;;;44.75;38.50;;;;;1.88;100.00;103483.81;5066115;28;45486;-79
2024/01/27 06:55:06;;;;;;;;;40.25;33.00;;;;;1.58;100.00;103440.25;5080091;28;45367;-79
2024/01/27 06:57:32;;;;;;;;;39.75;32.75;;;;;1.89;100.00;103494.31;5061948;28;45532;-79
2024/01/27 06:59:57;;;;;;;;;28.75;28.75;;;;;1.82;100.00;103502.78;5061332;28;45981;-79
2024/01/27 07:02:23;;;;;;;;;36.50;30.50;;;;;1.32;100.00;103404.66;5086807;27;45282;-79
2024/01/27 07:04:49;;;;;;;;;28.75;28.75;;;;;1.55;100.00;103455.81;5080152;28;45218;-79
2024/01/27 07:07:14;;;;;;;;;33.00;29.25;;;;;1.33;100.00;103397.72;5083858;27;45362;-78
2024/01/27 07:09:39;;;;;;;;;35.00;31.50;;;;;1.45;100.00;103419.84;5086524;27;45423;-79
2024/01/27 07:12:05;;;;;;;;;32.25;28.00;;;;;1.44;100.00;103431.09;5065237;27;45392;-79
2024/01/27 07:14:30;;;;;;;;;40.75;31.25;;;;;1.78;100.00;103490.47;5083936;27;45510;-79
2024/01/27 07:16:56;;;;;;;;;34.25;30.75;;;;;1.70;100.00;103473.69;5071245;28;45309;-79
2024/01/27 07:19:21;;;;;;;;;38.50;32.00;;;;;1.39;100.00;103422.25;5061730;27;46583;-79
2024/01/27 07:21:47;;;;;;;;;32.25;27.00;;;;;1.77;100.00;103498.22;5080625;27;45430;-79
2024/01/27 07:24:12;;;;;;;;;35.50;27.00;;;;;1.69;100.00;103479.75;5078406;27;45468;-78
2024/01/27 07:26:38;;;;;;;;;32.50;32.25;;;;;1.78;100.00;103489.56;5069511;28;45670;-79
2024/01/27 07:29:03;;;;;;;;;34.00;29.50;;;;;1.77;100.00;103498.22;5062399;28;45434;-79
2024/01/27 07:31:28;;;;;;;;;37.50;30.50;;;;;1.87;100.00;103514.22;5086267;27;45373;-78
2024/01/27 07:33:53;;;;;;;;;28.00;28.00;;;;;1.62;100.00;103474.25;5085019;27;45421;-78
2024/01/27 07:36:19;;;;;;;;;31.25;30.50;;;;;1.66;100.00;103482.25;5066523;27;54957;-78
2024/01/27 07:38:44;;;;;;;;;34.50;34.50;;;;;1.65;100.00;103487.41;5089799;27;45486;-79
2024/01/27 07:41:09;;;;;;;;;33.50;26.75;;;;;1.71;100.00;103490.19;5068698;27;45548;-79
2024/01/27 07:43:35;;;;;;;;;31.00;30.75;;;;;1.77;100.00;103495.63;5080651;27;45368;-79
2024/01/27 07:46:00;;;;;;;;;37.25;35.00;;;;;1.30;100.00;103421.09;5078145;27;45444;-79
2024/01/27 07:48:26;;;;;;;;;39.00;31.00;;;;;1.66;100.00;103489.19;5092108;27;46815;-79
2024/01/27 07:50:51;;;;;;;;;41.25;32.50;;;;;1.74;100.00;103495.50;5072146;28;45371;-79
2024/01/27 07:53:17;;;;;;;;;31.75;27.75;;;;;1.72;100.00;103515.47;5091286;27;45970;-78
2024/01/27 07:55:42;;;;;;;;;42.00;36.50;;;;;1.69;100.00;103481.47;5095842;27;45352;-78
2024/01/27 07:58:08;;;;;;;;;28.50;25.50;;;;;1.64;100.00;103465.66;5078863;27;48056;-79
2024/01/27 08:00:33;;;;;;;;;33.25;25.75;;;;;1.76;100.00;103494.75;5078272;27;45401;-79
2024/01/27 08:02:59;;;;;;;;;46.00;38.50;;;;;1.77;100.00;103486.06;5097474;27;45261;-79
2024/01/27 08:05:24;;;;;;;;;41.50;36.25;;;;;1.83;100.00;103493.22;5086725;27;45547;-79
2024/01/27 08:07:50;;;;;;;;;39.50;33.25;;;;;1.75;100.00;103492.09;5076096;27;45673;-79
2024/01/27 08:10:15;;;;;;;;;41.50;37.25;;;;;2.00;100.00;103536.38;5078893;27;45436;-79
2024/01/27 08:12:40;;;;;;;;;43.00;38.00;;;;;1.88;100.00;103492.53;5063114;28;45255;-79
2024/01/27 08:15:07;;;;;;;;;47.50;36.75;;;;;1.78;100.00;103477.41;5075230;27;45353;-78
2024/01/27 08:17:32;;;;;;;;;43.00;39.00;;;;;2.01;100.00;103507.72;5075487;28;45566;-79
2024/01/27 08:19:58;;;;;;;;;51.50;43.50;;;;;1.89;100.00;103493.41;5076436;28;45345;-79
2024/01/27 08:22:24;;;;;;;;;50.00;32.00;;;;;2.00;100.00;103498.13;5076350;27;45630;-79
2024/01/27 08:24:49;;;;;;;;;41.25;38.25;;;;;2.06;100.00;103510.50;5074327;28;46355;-79
2024/01/27 08:27:15;;;;;;;;;36.75;33.00;;;;;1.94;100.00;103471.84;5056751;28;46201;-79
2024/01/27 08:29:40;;;;;;;;;43.75;39.25;;;;;2.15;100.00;103509.88;5074316;27;45505;-79
2024/01/27 08:32:06;;;;;;;;;49.25;40.75;;;;;1.64;100.00;103402.19;5063410;28;45496;-79
2024/01/27 08:34:37;;;;;;;;;47.00;38.00;;;;;1.30;100.00;103345.50;5074964;28;45681;-79
2024/01/27 08:37:15;;;;;;;;;46.25;38.25;;;;;1.74;100.00;103427.69;5073525;28;46229;-79
2024/01/27 08:39:43;;;;;;;;;50.00;39.75;;;;;1.53;100.00;103341.88;5073046;28;45416;-79
2024/01/27 08:42:08;;;;;;;;;40.25;38.50;;;;;2.18;100.00;103448.22;5075105;28;45506;-79
2024/01/27 08:44:37;;;;;;;;;44.00;37.75;;;;;1.90;100.00;103424.72;5063246;28;45938;-79
2024/01/27 08:47:02;;;;;;;;;54.50;44.00;;;;;2.29;100.00;103474.63;5079226;27;46283;-79
2024/01/27 08:49:28;;;;;;;;;52.50;43.25;;;;;2.00;100.00;103414.59;5069187;27;45530;-78
2024/01/27 08:51:55;;;;;;;;;52.75;40.50;;;;;1.89;100.00;103373.38;5054526;27;45415;-79
2024/01/27 08:54:20;;;;;;;;;49.75;42.00;;;;;2.71;100.00;103498.50;5086378;27;45395;-79
2024/01/27 08:56:45;;;;;;;;;49.75;41.50;;;;;2.49;100.00;103432.56;5072665;28;45443;-79
2024/01/27 08:59:11;;;;;;;;;64.75;48.25;;;;;2.21;100.00;103363.88;5075741;27;45417;-79
2024/01/27 09:01:36;;;;;;;;;56.50;43.50;;;;;2.33;100.00;103366.81;5070093;28;45444;-79
2024/01/27 09:04:01;;;;;;;;;44.75;37.25;;;;;3.15;100.00;103506.69;5072999;27;45368;-79
2024/01/27 09:06:27;;;;;;;;;51.00;43.00;;;;;3.00;100.00;103461.84;5076556;28;47162;-79
2024/01/27 09:08:52;;;;;;;;;45.50;39.00;;;;;3.09;100.00;103469.94;5051773;28;54601;-79
2024/01/27 09:11:17;;;;;;;;;46.50;37.00;;;;;3.28;100.00;103489.59;5058513;27;45367;-78
2024/01/27 09:13:45;;;;;;;;;56.00;40.50;;;;;3.45;100.00;103493.53;5077049;27;45304;-79
2024/01/27 09:16:13;;;;;;;;;51.50;42.25;;;;;3.40;100.00;103471.63;5076341;27;45296;-78
2024/01/27 09:18:41;;;;;;;;;57.50;43.50;;;;;3.58;100.00;103502.56;5075471;27;45542;-78
2024/01/27 09:21:06;;;;;;;;;51.00;39.50;;;;;3.42;100.00;103475.13;5077907;28;45510;-79
2024/01/27 09:23:31;;;;;;;;;47.50;40.50;;;;;3.32;100.00;103431.28;5056388;28;45471;-78
2024/01/27 09:25:57;;;;;;;;;53.75;41.75;;;;;3.68;100.00;103481.91;5075366;28;46820;-78
2024/01/27 09:28:23;;;;;;;;;57.00;44.50;;;;;3.67;100.00;103474.00;5075410;28;45374;-78
2024/01/27 09:30:51;;;;;;;;;56.50;46.00;;;;;3.84;100.00;103480.50;5059697;28;45425;-78
2024/01/27 09:33:22;;;;;;;;;77.25;60.75;;;;;3.94;100.00;103490.34;5075949;28;45414;-78
2024/01/27 09:35:48;;;;;;;;;59.00;48.50;;;;;4.07;100.00;103481.03;5056822;28;46930;-78
2024/01/27 09:38:14;;;;;;;;;57.00;44.00;;;;;4.05;100.00;103470.53;5058226;28;45500;-78
2024/01/27 09:40:39;;;;;;;;;61.50;47.00;;;;;4.20;100.00;103483.97;5076229;28;45534;-78
2024/01/27 09:43:05;;;;;;;;;55.50;46.25;;;;;4.14;100.00;103454.13;5075290;28;45255;-77
2024/01/27 09:45:31;;;;;;;;;48.00;39.00;;;;;4.33;100.00;103478.97;5079184;28;45407;-77
2024/01/27 09:47:59;;;;;;;;;49.25;41.25;;;;;4.43;100.00;103484.44;5079736;28;45509;-76
2024/01/27 09:50:24;;;;;;;;;52.00;38.75;;;;;4.57;100.00;103496.13;5061998;28;45434;-76
2024/01/27 09:52:50;;;;;;;;;51.00;44.25;;;;;4.52;100.00;103471.53;5080685;28;45483;-76
2024/01/27 09:55:15;;;;;;;;;37.75;32.50;;;;;4.48;100.00;103455.75;5058579;28;46976;-76
2024/01/27 09:57:41;;;;;;;;;55.00;43.00;;;;;4.71;100.00;103471.03;5083689;27;45621;-76
2024/01/27 10:00:11;;;;;;;;;51.00;41.75;;;;;4.94;100.00;103497.72;5059715;28;45575;-76
2024/01/27 10:02:40;;;;;;;;;41.25;37.25;;;;;5.02;100.00;103511.88;5081400;28;45536;-76
2024/01/27 10:05:08;;;;;;;;;45.00;39.00;;;;;4.99;100.00;103496.06;5078481;28;47677;-76
2024/01/27 10:07:34;;;;;;;;;46.50;40.00;;;;;5.08;100.00;103505.84;5067901;28;45656;-77
2024/01/27 10:09:59;;;;;;;;;47.50;41.50;;;;;5.19;100.00;103504.31;5062588;28;45230;-76
2024/01/27 10:12:26;;;;;;;;;52.25;40.00;;;;;5.28;100.00;103516.69;5079537;28;45245;-77
2024/01/27 10:14:52;;;;;;;;;57.00;43.50;;;;;5.30;100.00;103513.22;5085363;27;46582;-76
2024/01/27 10:17:36;;;;;;;;;40.75;38.25;;;;;5.30;100.00;103494.88;5080188;28;45291;-77
2024/01/27 10:20:03;;;;;;;;;46.25;39.50;;;;;5.34;100.00;103485.31;5079865;28;45294;-77
2024/01/27 10:22:29;;;;;;;;;44.50;39.25;;;;;5.43;100.00;103483.72;5079577;28;45390;-77
2024/01/27 10:24:55;;;;;;;;;39.25;37.50;;;;;5.61;100.00;103504.16;5062184;28;47383;-77
2024/01/27 10:27:21;;;;;;;;;39.50;36.50;;;;;5.62;100.00;103492.81;5080467;28;45408;-77
2024/01/27 10:29:54;;;;;;;;;39.75;36.25;;;;;5.70;100.00;103497.31;5061029;28;45353;-77
2024/01/27 10:32:26;;;;;;;;;43.75;37.00;;;;;5.84;100.00;103494.91;5080051;28;45463;-77
2024/01/27 10:35:10;;;;;;;;;51.25;38.75;;;;;5.94;100.00;103506.47;5058482;28;46108;-77
2024/01/27 10:37:36;;;;;;;;;39.00;36.50;;;;;5.85;100.00;103470.44;5080690;28;45279;-77
2024/01/27 10:40:07;;;;;;;;;35.25;32.00;;;;;5.87;100.00;103458.22;5062099;28;45467;-77
2024/01/27 10:42:34;;;;;;;;;43.00;36.00;;;;;6.23;100.00;103495.53;5081446;28;45565;-77
2024/01/27 10:45:02;;;;;;;;;44.25;39.00;;;;;6.09;100.00;103443.63;5065185;28;45330;-78
2024/01/27 10:47:30;;;;;;;;;56.25;40.00;;;;;6.36;100.00;103504.44;5082730;28;45272;-77
2024/01/27 10:50:09;;;;;;;;;41.25;37.00;;;;;6.42;100.00;103448.44;5080591;28;45442;-78
2024/01/27 10:52:41;;;;;;;;;42.50;37.75;;;;;6.15;100.00;103391.19;5078929;28;45722;-78
2024/01/27 10:55:10;;;;;;;;;46.00;36.50;;;;;5.89;100.00;103319.91;5080013;27;45527;-78
2024/01/27 10:57:42;;;;;;;;;45.75;37.00;;;;;6.09;100.00;103336.81;5062607;28;45378;-78
2024/01/27 11:00:09;;;;;;;;;37.75;33.75;;;;;6.26;100.00;103350.16;5077671;28;45416;-78
2024/01/27 11:02:35;;;;;;;;;41.50;36.00;;;;;6.38;100.00;103373.94;5079985;28;45290;-78
2024/01/27 11:05:07;;;;;;;;;44.75;36.25;;;;;7.25;100.00;103497.63;5078324;28;46399;-78